sensor_id;sensor_type;location;lat;lon;timestamp;P1;durP1;ratioP1;P2;durP2;ratioP2
3417;SDS011;1722;51.316;12.370;2022-09-24T00:01:36;16.57;;;7.97;;
3417;SDS011;1722;51.316;12.370;2022-09-24T00:04:05;9.63;;;8.03;;
3417;SDS011;1722;51.316;12.370;2022-09-24T00:06:35;11.27;;;7.97;;
3417;SDS011;1722;51.316;12.370;2022-09-24T00:09:03;11.53;;;8.40;;
3417;SDS011;1722;51.316;12.370;2022-09-24T00:11:31;12.77;;;7.50;;
3417;SDS011;1722;51.316;12.370;2022-09-24T00:13:58;10.93;;;8.70;;
3417;SDS011;1722;51.316;12.370;2022-09-24T00:16:27;10.43;;;7.53;;
3417;SDS011;1722;51.316;12.370;2022-09-24T00:18:57;18.23;;;8.80;;
3417;SDS011;1722;51.316;12.370;2022-09-24T00:21:27;11.27;;;7.80;;
3417;SDS011;1722;51.316;12.370;2022-09-24T00:23:56;12.00;;;8.63;;
3417;SDS011;1722;51.316;12.370;2022-09-24T00:26:26;13.90;;;7.23;;
3417;SDS011;1722;51.316;12.370;2022-09-24T00:29:12;9.50;;;7.33;;
3417;SDS011;1722;51.316;12.370;2022-09-24T00:31:41;10.90;;;7.93;;
3417;SDS011;1722;51.316;12.370;2022-09-24T00:34:09;9.20;;;7.40;;
3417;SDS011;1722;51.316;12.370;2022-09-24T00:36:38;11.40;;;7.50;;
3417;SDS011;1722;51.316;12.370;2022-09-24T00:39:05;12.67;;;7.20;;
3417;SDS011;1722;51.316;12.370;2022-09-24T00:41:34;12.60;;;7.50;;
3417;SDS011;1722;51.316;12.370;2022-09-24T00:47:04;12.97;;;7.97;;
3417;SDS011;1722;51.316;12.370;2022-09-24T00:49:32;9.80;;;7.50;;
3417;SDS011;1722;51.316;12.370;2022-09-24T00:52:00;11.30;;;7.70;;
3417;SDS011;1722;51.316;12.370;2022-09-24T00:54:29;11.47;;;7.50;;
3417;SDS011;1722;51.316;12.370;2022-09-24T00:56:57;8.57;;;6.90;;
3417;SDS011;1722;51.316;12.370;2022-09-24T00:59:25;9.83;;;7.03;;
3417;SDS011;1722;51.316;12.370;2022-09-24T01:01:54;9.43;;;7.47;;
3417;SDS011;1722;51.316;12.370;2022-09-24T01:04:24;9.20;;;6.30;;
3417;SDS011;1722;51.316;12.370;2022-09-24T01:06:53;8.07;;;6.70;;
3417;SDS011;1722;51.316;12.370;2022-09-24T01:09:25;10.27;;;7.47;;
3417;SDS011;1722;51.316;12.370;2022-09-24T01:11:55;8.10;;;7.23;;
3417;SDS011;1722;51.316;12.370;2022-09-24T01:14:31;7.80;;;6.80;;
3417;SDS011;1722;51.316;12.370;2022-09-24T01:17:14;8.03;;;6.90;;
3417;SDS011;1722;51.316;12.370;2022-09-24T01:19:54;7.47;;;5.93;;
3417;SDS011;1722;51.316;12.370;2022-09-24T01:22:56;10.00;;;7.10;;
3417;SDS011;1722;51.316;12.370;2022-09-24T01:25:41;11.07;;;7.27;;
3417;SDS011;1722;51.316;12.370;2022-09-24T01:28:25;9.40;;;6.43;;
3417;SDS011;1722;51.316;12.370;2022-09-24T01:31:07;13.67;;;6.30;;
3417;SDS011;1722;51.316;12.370;2022-09-24T01:33:40;7.67;;;6.23;;
3417;SDS011;1722;51.316;12.370;2022-09-24T01:36:10;9.77;;;6.37;;
3417;SDS011;1722;51.316;12.370;2022-09-24T01:38:40;12.03;;;6.63;;
3417;SDS011;1722;51.316;12.370;2022-09-24T01:41:11;9.67;;;6.97;;
3417;SDS011;1722;51.316;12.370;2022-09-24T01:43:40;7.83;;;5.83;;
3417;SDS011;1722;51.316;12.370;2022-09-24T01:46:10;7.10;;;5.70;;
3417;SDS011;1722;51.316;12.370;2022-09-24T01:48:39;9.70;;;6.70;;
3417;SDS011;1722;51.316;12.370;2022-09-24T01:51:09;7.70;;;6.33;;
3417;SDS011;1722;51.316;12.370;2022-09-24T01:53:41;9.20;;;6.33;;
3417;SDS011;1722;51.316;12.370;2022-09-24T01:56:14;7.30;;;6.10;;
3417;SDS011;1722;51.316;12.370;2022-09-24T01:58:46;8.83;;;7.00;;
3417;SDS011;1722;51.316;12.370;2022-09-24T02:01:20;8.73;;;6.30;;
3417;SDS011;1722;51.316;12.370;2022-09-24T02:03:52;8.53;;;7.40;;
3417;SDS011;1722;51.316;12.370;2022-09-24T02:06:23;10.20;;;6.60;;
3417;SDS011;1722;51.316;12.370;2022-09-24T02:08:55;12.13;;;6.60;;
3417;SDS011;1722;51.316;12.370;2022-09-24T02:11:23;7.47;;;5.57;;
3417;SDS011;1722;51.316;12.370;2022-09-24T02:13:54;8.17;;;6.77;;
3417;SDS011;1722;51.316;12.370;2022-09-24T02:16:27;8.80;;;6.87;;
3417;SDS011;1722;51.316;12.370;2022-09-24T02:18:57;7.20;;;5.80;;
3417;SDS011;1722;51.316;12.370;2022-09-24T02:21:27;6.90;;;5.47;;
3417;SDS011;1722;51.316;12.370;2022-09-24T02:23:58;10.67;;;7.17;;
3417;SDS011;1722;51.316;12.370;2022-09-24T02:26:31;8.90;;;5.93;;
3417;SDS011;1722;51.316;12.370;2022-09-24T02:28:58;6.80;;;5.70;;
3417;SDS011;1722;51.316;12.370;2022-09-24T02:31:27;8.23;;;5.97;;
3417;SDS011;1722;51.316;12.370;2022-09-24T02:33:58;7.40;;;5.63;;
3417;SDS011;1722;51.316;12.370;2022-09-24T02:36:51;7.77;;;5.80;;
3417;SDS011;1722;51.316;12.370;2022-09-24T02:39:20;8.47;;;6.37;;
3417;SDS011;1722;51.316;12.370;2022-09-24T02:41:48;9.60;;;6.07;;
3417;SDS011;1722;51.316;12.370;2022-09-24T02:44:17;7.37;;;6.10;;
3417;SDS011;1722;51.316;12.370;2022-09-24T02:46:46;9.23;;;5.70;;
3417;SDS011;1722;51.316;12.370;2022-09-24T02:49:15;8.13;;;6.13;;
3417;SDS011;1722;51.316;12.370;2022-09-24T02:51:43;8.53;;;5.63;;
3417;SDS011;1722;51.316;12.370;2022-09-24T02:54:11;13.93;;;6.90;;
3417;SDS011;1722;51.316;12.370;2022-09-24T02:56:38;7.97;;;5.73;;
3417;SDS011;1722;51.316;12.370;2022-09-24T02:59:06;8.57;;;6.50;;
3417;SDS011;1722;51.316;12.370;2022-09-24T03:01:34;9.33;;;5.57;;
3417;SDS011;1722;51.316;12.370;2022-09-24T03:04:03;9.57;;;5.93;;
3417;SDS011;1722;51.316;12.370;2022-09-24T03:06:31;8.37;;;5.57;;
3417;SDS011;1722;51.316;12.370;2022-09-24T03:08:59;6.80;;;6.10;;
3417;SDS011;1722;51.316;12.370;2022-09-24T03:11:27;7.63;;;5.80;;
3417;SDS011;1722;51.316;12.370;2022-09-24T03:13:54;7.20;;;5.83;;
3417;SDS011;1722;51.316;12.370;2022-09-24T03:16:22;9.17;;;6.20;;
3417;SDS011;1722;51.316;12.370;2022-09-24T03:18:49;8.07;;;6.03;;
3417;SDS011;1722;51.316;12.370;2022-09-24T03:21:18;12.77;;;6.27;;
3417;SDS011;1722;51.316;12.370;2022-09-24T03:23:47;9.67;;;6.20;;
3417;SDS011;1722;51.316;12.370;2022-09-24T03:26:15;7.30;;;5.97;;
3417;SDS011;1722;51.316;12.370;2022-09-24T03:28:43;7.83;;;6.50;;
3417;SDS011;1722;51.316;12.370;2022-09-24T03:31:11;10.60;;;5.87;;
3417;SDS011;1722;51.316;12.370;2022-09-24T03:33:39;8.10;;;5.33;;
3417;SDS011;1722;51.316;12.370;2022-09-24T03:36:08;14.07;;;5.70;;
3417;SDS011;1722;51.316;12.370;2022-09-24T03:38:39;7.97;;;6.03;;
3417;SDS011;1722;51.316;12.370;2022-09-24T03:41:07;8.37;;;5.37;;
3417;SDS011;1722;51.316;12.370;2022-09-24T03:43:35;6.97;;;6.10;;
3417;SDS011;1722;51.316;12.370;2022-09-24T03:46:03;7.93;;;6.23;;
3417;SDS011;1722;51.316;12.370;2022-09-24T03:48:32;6.60;;;5.77;;
3417;SDS011;1722;51.316;12.370;2022-09-24T03:51:02;10.00;;;5.80;;
3417;SDS011;1722;51.316;12.370;2022-09-24T03:53:30;8.60;;;6.30;;
3417;SDS011;1722;51.316;12.370;2022-09-24T03:55:59;7.70;;;6.40;;
3417;SDS011;1722;51.316;12.370;2022-09-24T03:58:28;10.00;;;7.00;;
3417;SDS011;1722;51.316;12.370;2022-09-24T04:00:56;7.20;;;5.90;;
3417;SDS011;1722;51.316;12.370;2022-09-24T04:03:24;10.87;;;5.97;;
3417;SDS011;1722;51.316;12.370;2022-09-24T04:05:52;8.07;;;6.57;;
3417;SDS011;1722;51.316;12.370;2022-09-24T04:08:20;6.37;;;5.77;;
3417;SDS011;1722;51.316;12.370;2022-09-24T04:10:48;9.33;;;5.93;;
3417;SDS011;1722;51.316;12.370;2022-09-24T04:13:18;6.93;;;5.50;;
3417;SDS011;1722;51.316;12.370;2022-09-24T04:15:46;7.53;;;6.00;;
3417;SDS011;1722;51.316;12.370;2022-09-24T04:18:14;7.13;;;5.97;;
3417;SDS011;1722;51.316;12.370;2022-09-24T04:20:42;6.40;;;5.70;;
3417;SDS011;1722;51.316;12.370;2022-09-24T04:23:10;8.13;;;5.63;;
3417;SDS011;1722;51.316;12.370;2022-09-24T04:25:37;7.23;;;5.77;;
3417;SDS011;1722;51.316;12.370;2022-09-24T04:28:06;10.83;;;5.93;;
3417;SDS011;1722;51.316;12.370;2022-09-24T04:30:36;8.03;;;6.63;;
3417;SDS011;1722;51.316;12.370;2022-09-24T04:33:04;8.83;;;6.13;;
3417;SDS011;1722;51.316;12.370;2022-09-24T04:35:33;8.03;;;6.40;;
3417;SDS011;1722;51.316;12.370;2022-09-24T04:38:02;8.60;;;6.67;;
3417;SDS011;1722;51.316;12.370;2022-09-24T04:40:29;10.50;;;6.70;;
3417;SDS011;1722;51.316;12.370;2022-09-24T04:42:57;6.53;;;5.73;;
3417;SDS011;1722;51.316;12.370;2022-09-24T04:45:25;9.20;;;6.10;;
3417;SDS011;1722;51.316;12.370;2022-09-24T04:47:54;11.80;;;6.60;;
3417;SDS011;1722;51.316;12.370;2022-09-24T04:50:22;10.30;;;6.20;;
3417;SDS011;1722;51.316;12.370;2022-09-24T04:52:50;8.50;;;6.33;;
3417;SDS011;1722;51.316;12.370;2022-09-24T04:55:17;9.13;;;6.60;;
3417;SDS011;1722;51.316;12.370;2022-09-24T04:57:45;8.23;;;6.20;;
3417;SDS011;1722;51.316;12.370;2022-09-24T05:00:14;7.60;;;6.00;;
3417;SDS011;1722;51.316;12.370;2022-09-24T05:02:43;9.17;;;6.00;;
3417;SDS011;1722;51.316;12.370;2022-09-24T05:05:12;8.60;;;6.60;;
3417;SDS011;1722;51.316;12.370;2022-09-24T05:07:40;9.37;;;6.37;;
3417;SDS011;1722;51.316;12.370;2022-09-24T05:10:09;10.90;;;5.90;;
3417;SDS011;1722;51.316;12.370;2022-09-24T05:12:38;10.07;;;6.20;;
3417;SDS011;1722;51.316;12.370;2022-09-24T05:15:06;9.27;;;6.30;;
3417;SDS011;1722;51.316;12.370;2022-09-24T05:17:36;8.40;;;6.20;;
3417;SDS011;1722;51.316;12.370;2022-09-24T05:20:04;8.60;;;6.73;;
3417;SDS011;1722;51.316;12.370;2022-09-24T05:22:34;12.73;;;6.87;;
3417;SDS011;1722;51.316;12.370;2022-09-24T05:25:02;11.97;;;6.53;;
3417;SDS011;1722;51.316;12.370;2022-09-24T05:27:30;10.87;;;6.50;;
3417;SDS011;1722;51.316;12.370;2022-09-24T05:29:56;8.53;;;6.23;;
3417;SDS011;1722;51.316;12.370;2022-09-24T05:32:24;8.07;;;6.00;;
3417;SDS011;1722;51.316;12.370;2022-09-24T05:34:51;8.43;;;6.03;;
3417;SDS011;1722;51.316;12.370;2022-09-24T05:37:19;7.43;;;6.00;;
3417;SDS011;1722;51.316;12.370;2022-09-24T05:39:48;14.30;;;6.43;;
3417;SDS011;1722;51.316;12.370;2022-09-24T05:42:15;9.57;;;6.30;;
3417;SDS011;1722;51.316;12.370;2022-09-24T05:44:42;9.53;;;6.00;;
3417;SDS011;1722;51.316;12.370;2022-09-24T05:47:10;11.27;;;7.03;;
3417;SDS011;1722;51.316;12.370;2022-09-24T05:49:38;9.93;;;6.00;;
3417;SDS011;1722;51.316;12.370;2022-09-24T05:52:05;8.23;;;6.40;;
3417;SDS011;1722;51.316;12.370;2022-09-24T05:54:33;8.70;;;6.80;;
3417;SDS011;1722;51.316;12.370;2022-09-24T05:57:02;8.30;;;6.60;;
3417;SDS011;1722;51.316;12.370;2022-09-24T05:59:30;11.67;;;6.90;;
3417;SDS011;1722;51.316;12.370;2022-09-24T06:01:57;12.93;;;7.50;;
3417;SDS011;1722;51.316;12.370;2022-09-24T06:04:24;10.60;;;6.77;;
3417;SDS011;1722;51.316;12.370;2022-09-24T06:06:52;7.97;;;6.37;;
3417;SDS011;1722;51.316;12.370;2022-09-24T06:09:20;10.53;;;6.37;;
3417;SDS011;1722;51.316;12.370;2022-09-24T06:11:48;9.03;;;6.83;;
3417;SDS011;1722;51.316;12.370;2022-09-24T06:14:19;10.40;;;6.17;;
3417;SDS011;1722;51.316;12.370;2022-09-24T06:16:47;8.10;;;6.10;;
3417;SDS011;1722;51.316;12.370;2022-09-24T06:19:14;7.17;;;5.40;;
3417;SDS011;1722;51.316;12.370;2022-09-24T06:21:42;6.70;;;5.93;;
3417;SDS011;1722;51.316;12.370;2022-09-24T06:24:09;9.40;;;6.27;;
3417;SDS011;1722;51.316;12.370;2022-09-24T06:26:37;6.30;;;5.67;;
3417;SDS011;1722;51.316;12.370;2022-09-24T06:29:04;6.93;;;6.23;;
3417;SDS011;1722;51.316;12.370;2022-09-24T06:31:33;8.67;;;6.07;;
3417;SDS011;1722;51.316;12.370;2022-09-24T06:34:00;6.87;;;5.93;;
3417;SDS011;1722;51.316;12.370;2022-09-24T06:36:28;7.90;;;6.10;;
3417;SDS011;1722;51.316;12.370;2022-09-24T06:38:55;9.17;;;5.73;;
3417;SDS011;1722;51.316;12.370;2022-09-24T06:41:23;10.63;;;6.67;;
3417;SDS011;1722;51.316;12.370;2022-09-24T06:43:52;9.00;;;6.33;;
3417;SDS011;1722;51.316;12.370;2022-09-24T06:46:19;6.93;;;5.53;;
3417;SDS011;1722;51.316;12.370;2022-09-24T06:48:49;7.67;;;5.80;;
3417;SDS011;1722;51.316;12.370;2022-09-24T06:51:16;7.93;;;5.60;;
3417;SDS011;1722;51.316;12.370;2022-09-24T06:53:44;8.20;;;5.97;;
3417;SDS011;1722;51.316;12.370;2022-09-24T06:56:11;10.50;;;6.50;;
3417;SDS011;1722;51.316;12.370;2022-09-24T06:58:38;9.70;;;6.00;;
3417;SDS011;1722;51.316;12.370;2022-09-24T07:01:06;11.70;;;6.50;;
3417;SDS011;1722;51.316;12.370;2022-09-24T07:03:34;7.73;;;5.70;;
3417;SDS011;1722;51.316;12.370;2022-09-24T07:06:05;7.27;;;5.43;;
3417;SDS011;1722;51.316;12.370;2022-09-24T07:08:33;8.07;;;6.17;;
3417;SDS011;1722;51.316;12.370;2022-09-24T07:11:00;9.23;;;5.73;;
3417;SDS011;1722;51.316;12.370;2022-09-24T07:13:28;9.90;;;6.10;;
3417;SDS011;1722;51.316;12.370;2022-09-24T07:15:55;8.23;;;6.00;;
3417;SDS011;1722;51.316;12.370;2022-09-24T07:18:23;8.37;;;5.70;;
3417;SDS011;1722;51.316;12.370;2022-09-24T07:20:50;6.70;;;5.63;;
3417;SDS011;1722;51.316;12.370;2022-09-24T07:23:20;11.90;;;6.10;;
3417;SDS011;1722;51.316;12.370;2022-09-24T07:25:48;7.37;;;6.30;;
3417;SDS011;1722;51.316;12.370;2022-09-24T07:28:16;11.07;;;6.07;;
3417;SDS011;1722;51.316;12.370;2022-09-24T07:30:44;7.87;;;5.83;;
3417;SDS011;1722;51.316;12.370;2022-09-24T07:33:11;8.53;;;6.23;;
3417;SDS011;1722;51.316;12.370;2022-09-24T07:35:39;6.70;;;5.57;;
3417;SDS011;1722;51.316;12.370;2022-09-24T07:38:07;10.10;;;5.97;;
3417;SDS011;1722;51.316;12.370;2022-09-24T07:40:39;8.43;;;5.97;;
3417;SDS011;1722;51.316;12.370;2022-09-24T07:43:07;7.70;;;6.20;;
3417;SDS011;1722;51.316;12.370;2022-09-24T07:45:38;7.97;;;6.03;;
3417;SDS011;1722;51.316;12.370;2022-09-24T07:48:06;9.80;;;6.20;;
3417;SDS011;1722;51.316;12.370;2022-09-24T07:50:34;8.93;;;6.00;;
3417;SDS011;1722;51.316;12.370;2022-09-24T07:53:04;12.33;;;6.10;;
3417;SDS011;1722;51.316;12.370;2022-09-24T07:55:32;8.70;;;6.00;;
3417;SDS011;1722;51.316;12.370;2022-09-24T07:58:05;12.90;;;6.10;;
3417;SDS011;1722;51.316;12.370;2022-09-24T08:00:34;7.30;;;5.30;;
3417;SDS011;1722;51.316;12.370;2022-09-24T08:03:02;6.63;;;5.40;;
3417;SDS011;1722;51.316;12.370;2022-09-24T08:05:30;6.93;;;5.70;;
3417;SDS011;1722;51.316;12.370;2022-09-24T08:07:58;8.87;;;6.07;;
3417;SDS011;1722;51.316;12.370;2022-09-24T08:10:26;8.80;;;5.80;;
3417;SDS011;1722;51.316;12.370;2022-09-24T08:12:54;8.97;;;6.00;;
3417;SDS011;1722;51.316;12.370;2022-09-24T08:15:24;18.50;;;5.60;;
3417;SDS011;1722;51.316;12.370;2022-09-24T08:17:51;15.20;;;6.30;;
3417;SDS011;1722;51.316;12.370;2022-09-24T08:20:18;6.20;;;5.40;;
3417;SDS011;1722;51.316;12.370;2022-09-24T08:22:48;7.27;;;5.10;;
3417;SDS011;1722;51.316;12.370;2022-09-24T08:25:15;10.63;;;5.53;;
3417;SDS011;1722;51.316;12.370;2022-09-24T08:27:43;12.90;;;7.63;;
3417;SDS011;1722;51.316;12.370;2022-09-24T08:30:10;11.27;;;5.53;;
3417;SDS011;1722;51.316;12.370;2022-09-24T08:32:44;11.20;;;5.60;;
3417;SDS011;1722;51.316;12.370;2022-09-24T08:35:12;7.90;;;5.83;;
3417;SDS011;1722;51.316;12.370;2022-09-24T08:37:40;9.00;;;5.10;;
3417;SDS011;1722;51.316;12.370;2022-09-24T08:40:08;7.43;;;6.00;;
3417;SDS011;1722;51.316;12.370;2022-09-24T08:42:44;6.10;;;5.07;;
3417;SDS011;1722;51.316;12.370;2022-09-24T08:45:16;6.80;;;4.93;;
3417;SDS011;1722;51.316;12.370;2022-09-24T08:48:05;6.60;;;4.93;;
3417;SDS011;1722;51.316;12.370;2022-09-24T08:50:40;6.90;;;5.03;;
3417;SDS011;1722;51.316;12.370;2022-09-24T08:53:15;8.20;;;5.23;;
3417;SDS011;1722;51.316;12.370;2022-09-24T08:55:50;7.73;;;5.10;;
3417;SDS011;1722;51.316;12.370;2022-09-24T08:58:24;15.23;;;6.77;;
3417;SDS011;1722;51.316;12.370;2022-09-24T09:00:57;8.13;;;5.00;;
3417;SDS011;1722;51.316;12.370;2022-09-24T09:03:35;7.50;;;5.23;;
3417;SDS011;1722;51.316;12.370;2022-09-24T09:06:09;6.00;;;4.53;;
3417;SDS011;1722;51.316;12.370;2022-09-24T09:08:43;8.43;;;4.27;;
3417;SDS011;1722;51.316;12.370;2022-09-24T09:11:19;6.87;;;4.20;;
3417;SDS011;1722;51.316;12.370;2022-09-24T09:13:51;7.50;;;3.80;;
3417;SDS011;1722;51.316;12.370;2022-09-24T09:16:25;6.00;;;4.43;;
3417;SDS011;1722;51.316;12.370;2022-09-24T09:18:58;17.60;;;5.60;;
3417;SDS011;1722;51.316;12.370;2022-09-24T09:21:33;4.83;;;4.00;;
3417;SDS011;1722;51.316;12.370;2022-09-24T09:24:08;12.67;;;5.40;;
3417;SDS011;1722;51.316;12.370;2022-09-24T09:26:42;19.13;;;8.03;;
3417;SDS011;1722;51.316;12.370;2022-09-24T09:29:14;8.07;;;5.00;;
3417;SDS011;1722;51.316;12.370;2022-09-24T09:31:45;11.23;;;4.60;;
3417;SDS011;1722;51.316;12.370;2022-09-24T09:34:25;9.07;;;4.60;;
3417;SDS011;1722;51.316;12.370;2022-09-24T09:37:05;8.73;;;4.30;;
3417;SDS011;1722;51.316;12.370;2022-09-24T09:39:41;10.13;;;4.53;;
3417;SDS011;1722;51.316;12.370;2022-09-24T09:42:19;7.57;;;3.90;;
3417;SDS011;1722;51.316;12.370;2022-09-24T09:44:58;8.30;;;4.20;;
3417;SDS011;1722;51.316;12.370;2022-09-24T09:47:33;5.67;;;3.80;;
3417;SDS011;1722;51.316;12.370;2022-09-24T09:50:09;4.00;;;3.60;;
3417;SDS011;1722;51.316;12.370;2022-09-24T09:52:43;6.67;;;4.30;;
3417;SDS011;1722;51.316;12.370;2022-09-24T09:55:18;10.33;;;4.00;;
3417;SDS011;1722;51.316;12.370;2022-09-24T09:57:47;4.90;;;3.67;;
3417;SDS011;1722;51.316;12.370;2022-09-24T10:00:22;3.83;;;3.33;;
3417;SDS011;1722;51.316;12.370;2022-09-24T10:02:52;4.93;;;3.93;;
3417;SDS011;1722;51.316;12.370;2022-09-24T10:05:21;4.40;;;3.27;;
3417;SDS011;1722;51.316;12.370;2022-09-24T10:07:53;4.50;;;3.60;;
3417;SDS011;1722;51.316;12.370;2022-09-24T10:10:23;7.30;;;3.40;;
3417;SDS011;1722;51.316;12.370;2022-09-24T10:12:52;6.10;;;3.80;;
3417;SDS011;1722;51.316;12.370;2022-09-24T10:15:21;4.90;;;3.30;;
3417;SDS011;1722;51.316;12.370;2022-09-24T10:17:51;4.40;;;3.20;;
3417;SDS011;1722;51.316;12.370;2022-09-24T10:20:22;8.67;;;3.20;;
3417;SDS011;1722;51.316;12.370;2022-09-24T10:22:52;3.20;;;2.90;;
3417;SDS011;1722;51.316;12.370;2022-09-24T10:25:23;5.53;;;3.10;;
3417;SDS011;1722;51.316;12.370;2022-09-24T10:27:53;4.50;;;3.10;;
3417;SDS011;1722;51.316;12.370;2022-09-24T10:30:47;5.10;;;3.47;;
3417;SDS011;1722;51.316;12.370;2022-09-24T10:33:18;5.00;;;3.73;;
3417;SDS011;1722;51.316;12.370;2022-09-24T10:35:47;8.90;;;4.20;;
3417;SDS011;1722;51.316;12.370;2022-09-24T10:38:16;5.57;;;3.60;;
3417;SDS011;1722;51.316;12.370;2022-09-24T10:40:46;5.23;;;3.40;;
3417;SDS011;1722;51.316;12.370;2022-09-24T10:43:15;5.70;;;3.20;;
3417;SDS011;1722;51.316;12.370;2022-09-24T10:45:59;6.53;;;3.00;;
3417;SDS011;1722;51.316;12.370;2022-09-24T10:48:48;5.37;;;3.30;;
3417;SDS011;1722;51.316;12.370;2022-09-24T10:51:26;7.53;;;3.30;;
3417;SDS011;1722;51.316;12.370;2022-09-24T10:54:05;7.30;;;3.50;;
3417;SDS011;1722;51.316;12.370;2022-09-24T10:56:43;6.10;;;3.20;;
3417;SDS011;1722;51.316;12.370;2022-09-24T10:59:20;4.93;;;3.17;;
3417;SDS011;1722;51.316;12.370;2022-09-24T11:02:20;3.03;;;2.73;;
3417;SDS011;1722;51.316;12.370;2022-09-24T11:05:01;4.30;;;3.23;;
3417;SDS011;1722;51.316;12.370;2022-09-24T11:07:43;3.30;;;3.00;;
3417;SDS011;1722;51.316;12.370;2022-09-24T11:10:25;9.60;;;2.90;;
3417;SDS011;1722;51.316;12.370;2022-09-24T11:13:11;5.83;;;3.30;;
3417;SDS011;1722;51.316;12.370;2022-09-24T11:15:54;4.67;;;3.20;;
3417;SDS011;1722;51.316;12.370;2022-09-24T11:18:36;5.33;;;2.90;;
3417;SDS011;1722;51.316;12.370;2022-09-24T11:21:16;6.57;;;2.40;;
3417;SDS011;1722;51.316;12.370;2022-09-24T11:26:57;4.67;;;2.47;;
3417;SDS011;1722;51.316;12.370;2022-09-24T11:29:43;3.77;;;2.60;;
3417;SDS011;1722;51.316;12.370;2022-09-24T11:32:21;9.03;;;2.30;;
3417;SDS011;1722;51.316;12.370;2022-09-24T11:35:12;2.03;;;1.93;;
3417;SDS011;1722;51.316;12.370;2022-09-24T11:37:53;5.60;;;2.10;;
3417;SDS011;1722;51.316;12.370;2022-09-24T11:40:33;2.30;;;2.10;;
3417;SDS011;1722;51.316;12.370;2022-09-24T11:43:15;2.00;;;1.90;;
3417;SDS011;1722;51.316;12.370;2022-09-24T11:45:56;1.80;;;1.70;;
3417;SDS011;1722;51.316;12.370;2022-09-24T11:48:40;2.70;;;1.55;;
3417;SDS011;1722;51.316;12.370;2022-09-24T11:51:24;1.50;;;1.38;;
3417;SDS011;1722;51.316;12.370;2022-09-24T11:54:01;1.73;;;1.60;;
3417;SDS011;1722;51.316;12.370;2022-09-24T11:56:36;1.90;;;1.80;;
3417;SDS011;1722;51.316;12.370;2022-09-24T11:59:10;2.03;;;1.80;;
3417;SDS011;1722;51.316;12.370;2022-09-24T12:01:43;2.35;;;1.63;;
3417;SDS011;1722;51.316;12.370;2022-09-24T12:04:16;2.22;;;1.38;;
3417;SDS011;1722;51.316;12.370;2022-09-24T12:06:49;2.00;;;1.90;;
3417;SDS011;1722;51.316;12.370;2022-09-24T12:09:22;2.00;;;1.63;;
3417;SDS011;1722;51.316;12.370;2022-09-24T12:12:00;3.85;;;1.88;;
3417;SDS011;1722;51.316;12.370;2022-09-24T12:14:35;2.47;;;1.75;;
3417;SDS011;1722;51.316;12.370;2022-09-24T12:17:14;3.23;;;1.60;;
3417;SDS011;1722;51.316;12.370;2022-09-24T12:19:47;2.90;;;2.00;;
3417;SDS011;1722;51.316;12.370;2022-09-24T12:22:19;2.20;;;1.60;;
3417;SDS011;1722;51.316;12.370;2022-09-24T12:24:50;2.60;;;2.17;;
3417;SDS011;1722;51.316;12.370;2022-09-24T12:27:21;2.77;;;2.00;;
3417;SDS011;1722;51.316;12.370;2022-09-24T12:29:54;2.10;;;2.00;;
3417;SDS011;1722;51.316;12.370;2022-09-24T12:32:46;3.77;;;2.00;;
3417;SDS011;1722;51.316;12.370;2022-09-24T12:35:30;3.23;;;2.60;;
3417;SDS011;1722;51.316;12.370;2022-09-24T12:38:22;2.20;;;2.00;;
3417;SDS011;1722;51.316;12.370;2022-09-24T12:41:14;3.17;;;1.97;;
3417;SDS011;1722;51.316;12.370;2022-09-24T12:43:53;6.07;;;1.80;;
3417;SDS011;1722;51.316;12.370;2022-09-24T12:46:26;2.77;;;2.30;;
3417;SDS011;1722;51.316;12.370;2022-09-24T12:48:57;3.23;;;2.00;;
3417;SDS011;1722;51.316;12.370;2022-09-24T12:51:32;2.67;;;2.17;;
3417;SDS011;1722;51.316;12.370;2022-09-24T12:54:04;2.30;;;1.87;;
3417;SDS011;1722;51.316;12.370;2022-09-24T12:56:34;6.73;;;1.83;;
3417;SDS011;1722;51.316;12.370;2022-09-24T12:59:03;3.83;;;2.33;;
3417;SDS011;1722;51.316;12.370;2022-09-24T13:01:31;2.50;;;2.30;;
3417;SDS011;1722;51.316;12.370;2022-09-24T13:04:01;2.47;;;2.27;;
3417;SDS011;1722;51.316;12.370;2022-09-24T13:06:31;2.20;;;2.00;;
3417;SDS011;1722;51.316;12.370;2022-09-24T13:09:00;2.50;;;1.70;;
3417;SDS011;1722;51.316;12.370;2022-09-24T13:11:30;2.00;;;1.77;;
3417;SDS011;1722;51.316;12.370;2022-09-24T13:14:14;3.47;;;2.03;;
3417;SDS011;1722;51.316;12.370;2022-09-24T13:16:46;2.23;;;2.03;;
3417;SDS011;1722;51.316;12.370;2022-09-24T13:19:20;1.90;;;1.80;;
3417;SDS011;1722;51.316;12.370;2022-09-24T13:21:54;7.23;;;1.77;;
3417;SDS011;1722;51.316;12.370;2022-09-24T13:24:24;2.50;;;1.83;;
3417;SDS011;1722;51.316;12.370;2022-09-24T13:26:53;2.43;;;1.63;;
3417;SDS011;1722;51.316;12.370;2022-09-24T13:29:37;2.27;;;1.80;;
3417;SDS011;1722;51.316;12.370;2022-09-24T13:32:07;2.90;;;1.90;;
3417;SDS011;1722;51.316;12.370;2022-09-24T13:34:42;2.88;;;1.73;;
3417;SDS011;1722;51.316;12.370;2022-09-24T13:37:14;3.08;;;1.85;;
3417;SDS011;1722;51.316;12.370;2022-09-24T13:39:47;1.88;;;1.77;;
3417;SDS011;1722;51.316;12.370;2022-09-24T13:42:23;1.95;;;1.83;;
3417;SDS011;1722;51.316;12.370;2022-09-24T13:44:59;2.47;;;2.38;;
3417;SDS011;1722;51.316;12.370;2022-09-24T13:47:29;2.47;;;1.95;;
3417;SDS011;1722;51.316;12.370;2022-09-24T13:50:05;2.17;;;1.92;;
3417;SDS011;1722;51.316;12.370;2022-09-24T13:52:38;2.10;;;1.90;;
3417;SDS011;1722;51.316;12.370;2022-09-24T13:55:10;3.58;;;2.33;;
3417;SDS011;1722;51.316;12.370;2022-09-24T13:57:44;1.90;;;1.80;;
3417;SDS011;1722;51.316;12.370;2022-09-24T14:00:15;1.48;;;1.48;;
3417;SDS011;1722;51.316;12.370;2022-09-24T14:02:50;1.90;;;1.73;;
3417;SDS011;1722;51.316;12.370;2022-09-24T14:05:20;2.15;;;1.95;;
3417;SDS011;1722;51.316;12.370;2022-09-24T14:10:35;2.47;;;2.15;;
3417;SDS011;1722;51.316;12.370;2022-09-24T14:13:14;1.70;;;1.60;;
3417;SDS011;1722;51.316;12.370;2022-09-24T14:15:55;2.20;;;2.10;;
3417;SDS011;1722;51.316;12.370;2022-09-24T14:18:23;2.05;;;1.95;;
3417;SDS011;1722;51.316;12.370;2022-09-24T14:20:53;2.05;;;1.95;;
3417;SDS011;1722;51.316;12.370;2022-09-24T14:23:24;2.37;;;1.80;;
3417;SDS011;1722;51.316;12.370;2022-09-24T14:25:56;2.23;;;2.03;;
3417;SDS011;1722;51.316;12.370;2022-09-24T14:28:25;5.23;;;2.20;;
3417;SDS011;1722;51.316;12.370;2022-09-24T14:30:58;2.37;;;2.17;;
3417;SDS011;1722;51.316;12.370;2022-09-24T14:33:27;4.90;;;2.27;;
3417;SDS011;1722;51.316;12.370;2022-09-24T14:35:58;2.40;;;2.20;;
3417;SDS011;1722;51.316;12.370;2022-09-24T14:38:29;3.90;;;2.50;;
3417;SDS011;1722;51.316;12.370;2022-09-24T14:41:00;2.87;;;2.50;;
3417;SDS011;1722;51.316;12.370;2022-09-24T14:43:32;5.17;;;3.20;;
3417;SDS011;1722;51.316;12.370;2022-09-24T14:46:06;2.70;;;2.47;;
3417;SDS011;1722;51.316;12.370;2022-09-24T14:48:39;3.00;;;2.70;;
3417;SDS011;1722;51.316;12.370;2022-09-24T14:51:19;5.13;;;3.00;;
3417;SDS011;1722;51.316;12.370;2022-09-24T14:53:58;3.77;;;2.90;;
3417;SDS011;1722;51.316;12.370;2022-09-24T14:56:27;2.97;;;2.70;;
3417;SDS011;1722;51.316;12.370;2022-09-24T14:58:56;2.83;;;2.53;;
3417;SDS011;1722;51.316;12.370;2022-09-24T15:01:29;3.77;;;3.20;;
3417;SDS011;1722;51.316;12.370;2022-09-24T15:03:59;3.40;;;2.73;;
3417;SDS011;1722;51.316;12.370;2022-09-24T15:06:29;3.87;;;2.93;;
3417;SDS011;1722;51.316;12.370;2022-09-24T15:08:58;3.50;;;2.53;;
3417;SDS011;1722;51.316;12.370;2022-09-24T15:11:28;3.67;;;2.77;;
3417;SDS011;1722;51.316;12.370;2022-09-24T15:14:00;7.63;;;2.80;;
3417;SDS011;1722;51.316;12.370;2022-09-24T15:16:31;7.53;;;2.57;;
3417;SDS011;1722;51.316;12.370;2022-09-24T15:19:08;3.87;;;3.03;;
3417;SDS011;1722;51.316;12.370;2022-09-24T15:21:44;3.40;;;2.80;;
3417;SDS011;1722;51.316;12.370;2022-09-24T15:24:13;5.23;;;3.20;;
3417;SDS011;1722;51.316;12.370;2022-09-24T15:26:41;5.80;;;2.80;;
3417;SDS011;1722;51.316;12.370;2022-09-24T15:29:14;3.30;;;2.10;;
3417;SDS011;1722;51.316;12.370;2022-09-24T15:31:47;3.30;;;2.97;;
3417;SDS011;1722;51.316;12.370;2022-09-24T15:34:14;2.53;;;2.20;;